Justice — WDG2184 — position and weather

sailwx.info

Track history (hours):
 
Tides and Currents Weather Stations Pressure Air Temp Water Temp Dewpoint Dewpoint Depression Visibility Wind Speed Wind Dir Waves Ship Positions

Justice

Owner: Boston Towing & Transportation, Boston, MA. More information available from US FCC via Universal Licensing System and Coast Guard Vessel Documentation Center.

Last reported at 2015-Apr-20 12:17 UTC. Time now 2015-Apr-21 04:59 UTC.
Position N 42°20' W 071°00'.

Length 30 m; draft 5.8 m.

Type: Tug. MMSI: 367513010.

Date/timePositionNaut miles runAvg speedWind from/ knotsBaromVisibWave heightAir tempDewpointWater temp
2015-Apr-20 12:17N 42°20' W 071°00'3 0.5
2015-Apr-20 06:24N 42°23' W 071°01'0 0.4
2015-Apr-20 05:32N 42°23' W 071°01'  
2015-Apr-17 02:04N 42°24' W 071°01'0 0.0
2015-Apr-17 00:23N 42°23' W 071°01'51 6.2
2015-Apr-16 16:08N 41°33' W 070°45'3 4.1
2015-Apr-16 15:23N 41°31' W 070°48'5 6.1
2015-Apr-16 14:33N 41°29' W 070°55'6 6.0
2015-Apr-16 13:29N 41°26' W 071°02'2 1.8
2015-Apr-16 12:26N 41°27' W 070°60'6 6.6
2015-Apr-16 11:33N 41°30' W 070°53'  
2015-Apr-10 18:26N 42°19' W 070°55'5 5.5
2015-Apr-10 17:33N 42°15' W 070°58'5 3.8
2015-Apr-10 16:16N 42°19' W 070°55'  
Track history (hours):
 
Tides and Currents Weather Stations Pressure Air Temp Water Temp Dewpoint Dewpoint Depression Visibility Wind Speed Wind Dir Waves Ship Positions

Justice

Owner: Boston Towing & Transportation, Boston, MA. More information available from US FCC via Universal Licensing System and Coast Guard Vessel Documentation Center.

Last reported at 2015-Apr-20 12:17 UTC. Time now 2015-Apr-21 04:59 UTC.
Position N 42°20' W 071°00'.

Length 30 m; draft 5.8 m.

Type: Tug. MMSI: 367513010.

Date/timePositionNaut miles runAvg speedWind from/ knotsBaromVisibWave heightAir tempDewpointWater temp
2015-Apr-20 12:17N 42°20' W 071°00'3 0.5
2015-Apr-20 06:24N 42°23' W 071°01'0 0.4
2015-Apr-20 05:32N 42°23' W 071°01'  
2015-Apr-17 02:04N 42°24' W 071°01'0 0.0
2015-Apr-17 00:23N 42°23' W 071°01'51 6.2
2015-Apr-16 16:08N 41°33' W 070°45'3 4.1
2015-Apr-16 15:23N 41°31' W 070°48'5 6.1
2015-Apr-16 14:33N 41°29' W 070°55'6 6.0
2015-Apr-16 13:29N 41°26' W 071°02'2 1.8
2015-Apr-16 12:26N 41°27' W 070°60'6 6.6
2015-Apr-16 11:33N 41°30' W 070°53'  
2015-Apr-10 18:26N 42°19' W 070°55'5 5.5
2015-Apr-10 17:33N 42°15' W 070°58'5 3.8
2015-Apr-10 16:16N 42°19' W 070°55'  

Dump ship's entire track history